Terminal Aerodrome Forecast
Issued by NWS

Home | Current Version | Previous Version | Text Only | Print | Product List | Glossary Off
Versions: 1 2 3 4 5 6 7 8 9 10 11 12 13 14 15 16 17 18 19 20 21 22 23 24 25 26 27 28 29 30 31 32 33 34 35 36 37 38

954
FTUS43 KGRB 162338
TAFATW
TAF
KATW 162338Z 1700/1724 08005KT P6SM SCT025 BKN110
      TEMPO 1700/1703 BKN025
     FM170300 12006KT P6SM OVC025
     FM170600 15007KT P6SM OVC020
     FM170900 16008KT P6SM OVC015
     FM171100 17009KT P6SM OVC020
     FM171400 17013G22KT P6SM OVC020
     FM171800 18013G23KT P6SM -RA OVC025
     FM172100 18012G21KT P6SM -RA OVC015=

USA.gov is the U.S. government's official web portal to all federal, state and local government web resources and services.